Indigo Sun — D5OF6 — position and weather

sailwx.info

Track history (hours):
 
Tides and Currents Weather Stations Pressure Air Temp Water Temp Dewpoint Dewpoint Depression Visibility Wind Speed Wind Dir Waves Ship Positions

Indigo Sun

Last reported at 2017-Nov-30 23:16 UTC. Time now 2017-Dec-14 00:21 UTC.
Position N 38°26' E 025°44'.
Warning: this ship's position is 13 days out of date.

Length 249 m; draft 11.9 m.

Type: Ship (hazmat cat C). MMSI: 636018113.

Date/timePositionNaut miles runAvg speedWind from/ knotsBaromVisibWave heightAir tempDewpointWater temp
2017-Nov-30 23:16N 38°26' E 025°44'2711.8
2017-Nov-30 20:59N 37°59' E 025°48'612.0
2017-Nov-30 20:30N 37°53' E 025°49'611.9
2017-Nov-30 20:00N 37°48' E 025°50'711.9
2017-Nov-30 19:27N 37°41' E 025°50'511.8
2017-Nov-30 19:00N 37°36' E 025°51'611.8
2017-Nov-30 18:30N 37°30' E 025°52'611.1
2017-Nov-30 18:00N 37°26' E 025°56'611.4
2017-Nov-30 17:30N 37°22' E 026°02'611.3
2017-Nov-30 17:00N 37°19' E 026°08'612.2
2017-Nov-30 16:30N 37°15' E 026°14'612.7
2017-Nov-30 16:00N 37°12' E 026°20'612.3
2017-Nov-30 15:30N 37°08' E 026°27'612.2
2017-Nov-30 15:00N 37°04' E 026°33'611.9
2017-Nov-30 14:30N 36°60' E 026°37'612.1
2017-Nov-30 14:00N 36°54' E 026°39'712.5
2017-Nov-30 13:28N 36°47' E 026°42'511.7
2017-Nov-30 13:00N 36°42' E 026°44'612.2
2017-Nov-30 12:30N 36°36' E 026°46'612.3
2017-Nov-30 12:00N 36°30' E 026°48'712.0
2017-Nov-30 11:28N 36°25' E 026°53'1812.3
2017-Nov-30 09:58N 36°13' E 027°10'  
Track history (hours):
 
Tides and Currents Weather Stations Pressure Air Temp Water Temp Dewpoint Dewpoint Depression Visibility Wind Speed Wind Dir Waves Ship Positions

Indigo Sun

Last reported at 2017-Nov-30 23:16 UTC. Time now 2017-Dec-14 00:21 UTC.
Position N 38°26' E 025°44'.
Warning: this ship's position is 13 days out of date.

Length 249 m; draft 11.9 m.

Type: Ship (hazmat cat C). MMSI: 636018113.

Date/timePositionNaut miles runAvg speedWind from/ knotsBaromVisibWave heightAir tempDewpointWater temp
2017-Nov-30 23:16N 38°26' E 025°44'2711.8
2017-Nov-30 20:59N 37°59' E 025°48'612.0
2017-Nov-30 20:30N 37°53' E 025°49'611.9
2017-Nov-30 20:00N 37°48' E 025°50'711.9
2017-Nov-30 19:27N 37°41' E 025°50'511.8
2017-Nov-30 19:00N 37°36' E 025°51'611.8
2017-Nov-30 18:30N 37°30' E 025°52'611.1
2017-Nov-30 18:00N 37°26' E 025°56'611.4
2017-Nov-30 17:30N 37°22' E 026°02'611.3
2017-Nov-30 17:00N 37°19' E 026°08'612.2
2017-Nov-30 16:30N 37°15' E 026°14'612.7
2017-Nov-30 16:00N 37°12' E 026°20'612.3
2017-Nov-30 15:30N 37°08' E 026°27'612.2
2017-Nov-30 15:00N 37°04' E 026°33'611.9
2017-Nov-30 14:30N 36°60' E 026°37'612.1
2017-Nov-30 14:00N 36°54' E 026°39'712.5
2017-Nov-30 13:28N 36°47' E 026°42'511.7
2017-Nov-30 13:00N 36°42' E 026°44'612.2
2017-Nov-30 12:30N 36°36' E 026°46'612.3
2017-Nov-30 12:00N 36°30' E 026°48'712.0
2017-Nov-30 11:28N 36°25' E 026°53'1812.3
2017-Nov-30 09:58N 36°13' E 027°10'  

Dump ship's entire track history